createdAt,value
2022-08-19T00:01:30.345Z,6.45
2022-08-19T00:03:59.226Z,6.13
2022-08-19T00:06:27.885Z,8.15
2022-08-19T00:08:56.503Z,8.48
2022-08-19T00:11:28.621Z,6.28
2022-08-19T00:13:57.638Z,8.05
2022-08-19T00:16:26.920Z,6.35
2022-08-19T00:18:56.688Z,6.07
2022-08-19T00:21:25.315Z,5.72
2022-08-19T00:23:53.697Z,6.40
2022-08-19T00:26:22.414Z,5.07
2022-08-19T00:28:52.160Z,5.35
2022-08-19T00:31:20.650Z,5.32
2022-08-19T00:33:51.422Z,4.72
2022-08-19T00:36:20.252Z,5.32
2022-08-19T00:38:48.677Z,5.38
2022-08-19T00:41:18.501Z,6.50
2022-08-19T00:43:58.896Z,5.28
2022-08-19T00:46:28.995Z,4.80
2022-08-19T00:48:58.021Z,5.82
2022-08-19T00:51:38.774Z,6.63
2022-08-19T00:54:07.930Z,6.68
2022-08-19T00:56:36.689Z,8.00
2022-08-19T00:59:09.460Z,8.45
2022-08-19T01:01:39.652Z,8.20
2022-08-19T01:04:08.356Z,10.90
2022-08-19T01:06:38.327Z,9.18
2022-08-19T01:09:07.218Z,8.77
2022-08-19T01:11:37.275Z,10.85
2022-08-19T01:14:06.031Z,10.70
2022-08-19T01:16:35.234Z,9.32
2022-08-19T01:19:05.874Z,11.13
2022-08-19T01:21:35.769Z,10.73
2022-08-19T01:24:05.798Z,12.13
2022-08-19T01:26:34.478Z,12.23
2022-08-19T01:29:05.214Z,12.95
2022-08-19T01:31:33.800Z,13.05
2022-08-19T01:34:02.817Z,12.25
2022-08-19T01:36:32.497Z,12.32
2022-08-19T01:39:01.591Z,12.95
2022-08-19T01:41:31.386Z,13.15
2022-08-19T01:44:13.720Z,14.50
2022-08-19T01:46:48.456Z,12.93
2022-08-19T01:49:17.856Z,11.60
2022-08-19T01:51:46.433Z,12.82
2022-08-19T01:54:23.434Z,14.23
2022-08-19T01:56:58.743Z,14.27
2022-08-19T01:59:27.235Z,12.75
2022-08-19T02:01:56.098Z,14.27
2022-08-19T02:04:26.463Z,13.25
2022-08-19T02:06:54.897Z,14.07
2022-08-19T02:09:23.266Z,13.43
2022-08-19T02:11:51.695Z,14.50
2022-08-19T02:14:21.495Z,15.60
2022-08-19T02:16:49.941Z,15.70
2022-08-19T02:19:18.366Z,14.43
2022-08-19T02:21:46.788Z,14.07
2022-08-19T02:24:15.159Z,15.10
2022-08-19T02:26:43.559Z,15.73
2022-08-19T02:29:11.944Z,15.70
2022-08-19T02:31:41.744Z,15.65
2022-08-19T02:34:10.112Z,17.45
2022-08-19T02:36:42.571Z,15.48
2022-08-19T02:39:10.155Z,15.35
2022-08-19T02:41:38.567Z,17.35
2022-08-19T02:44:28.617Z,15.93
2022-08-19T02:46:57.537Z,17.98
2022-08-19T02:49:25.938Z,16.27
2022-08-19T02:51:55.377Z,17.45
2022-08-19T02:54:23.806Z,18.90
2022-08-19T02:56:52.390Z,17.73
2022-08-19T02:59:22.993Z,18.80
2022-08-19T03:01:51.684Z,19.42
2022-08-19T03:04:21.547Z,19.10
2022-08-19T03:06:50.042Z,19.15
2022-08-19T03:09:19.151Z,18.25
2022-08-19T03:11:48.640Z,19.60
2022-08-19T03:14:19.108Z,19.10
2022-08-19T03:16:48.586Z,21.10
2022-08-19T03:19:18.866Z,22.60
2022-08-19T03:21:48.814Z,21.58
2022-08-19T03:24:18.291Z,22.38
2022-08-19T03:26:48.060Z,25.55
2022-08-19T03:29:25.881Z,22.83
2022-08-19T03:31:59.735Z,22.83
2022-08-19T03:34:32.340Z,24.40
2022-08-19T03:37:05.599Z,19.88
2022-08-19T03:39:34.020Z,22.83
2022-08-19T03:42:31.708Z,20.77
2022-08-19T03:44:52.029Z,22.17
2022-08-19T03:47:20.431Z,22.57
2022-08-19T03:49:48.803Z,23.03
2022-08-19T03:52:18.596Z,23.17
2022-08-19T03:54:47.103Z,22.70
2022-08-19T03:57:15.522Z,21.77
2022-08-19T03:59:44.523Z,21.97
2022-08-19T04:02:14.420Z,21.13
2022-08-19T04:04:45.105Z,22.47
2022-08-19T04:07:17.262Z,22.27
2022-08-19T04:09:47.148Z,22.17
2022-08-19T04:12:15.971Z,25.52
2022-08-19T04:14:44.352Z,20.60
2022-08-19T04:17:14.009Z,20.17
2022-08-19T04:19:43.870Z,20.90
2022-08-19T04:22:13.019Z,21.10
2022-08-19T04:24:41.407Z,23.40
2022-08-19T04:27:11.187Z,25.80
2022-08-19T04:29:40.502Z,23.50
2022-08-19T04:32:09.933Z,26.83
2022-08-19T04:35:01.455Z,24.37
2022-08-19T04:37:34.939Z,25.83
2022-08-19T04:40:22.038Z,25.53
2022-08-19T04:42:52.254Z,27.40
2022-08-19T04:45:23.083Z,27.17
2022-08-19T04:47:58.924Z,24.07
2022-08-19T04:50:43.082Z,24.97
2022-08-19T04:53:11.650Z,26.93
2022-08-19T04:55:43.561Z,24.77
2022-08-19T04:58:13.325Z,26.93
2022-08-19T05:00:42.002Z,27.73
2022-08-19T05:03:11.377Z,23.93
2022-08-19T05:05:45.240Z,26.10
2022-08-19T05:08:15.312Z,25.77
2022-08-19T05:10:44.218Z,22.67
2022-08-19T05:13:14.155Z,26.47
2022-08-19T05:15:42.518Z,27.30
2022-08-19T05:18:28.928Z,28.33
2022-08-19T05:21:15.078Z,27.23
2022-08-19T05:23:43.774Z,25.53
2022-08-19T05:26:12.408Z,28.30
2022-08-19T05:28:42.426Z,28.00
2022-08-19T05:31:11.066Z,31.60
2022-08-19T05:33:40.714Z,29.97
2022-08-19T05:36:09.609Z,32.10
2022-08-19T05:38:38.314Z,35.07
2022-08-19T05:41:09.586Z,31.27
2022-08-19T05:43:38.257Z,32.23
2022-08-19T05:46:08.664Z,29.20
2022-08-19T05:48:37.573Z,26.27
2022-08-19T05:51:07.891Z,26.20
2022-08-19T05:53:36.464Z,23.98
2022-08-19T05:56:06.903Z,24.42
2022-08-19T05:58:35.305Z,26.30
2022-08-19T06:01:06.416Z,26.70
2022-08-19T06:03:37.308Z,27.48
2022-08-19T06:06:06.580Z,22.67
2022-08-19T06:08:36.008Z,24.38
2022-08-19T06:11:25.224Z,24.77
2022-08-19T06:14:00.321Z,24.38
2022-08-19T06:16:29.287Z,24.65
2022-08-19T06:18:59.369Z,24.40
2022-08-19T06:21:29.253Z,24.55
2022-08-19T06:23:58.120Z,22.20
2022-08-19T06:26:27.583Z,22.33
2022-08-19T06:28:56.000Z,21.73
2022-08-19T06:31:25.816Z,21.45
2022-08-19T06:33:55.688Z,21.05
2022-08-19T06:36:28.151Z,20.35
2022-08-19T06:38:58.684Z,21.42
2022-08-19T06:41:27.171Z,18.73
2022-08-19T06:43:56.417Z,19.35
2022-08-19T06:46:25.569Z,20.08
2022-08-19T06:48:55.382Z,20.80
2022-08-19T06:51:25.847Z,23.13
2022-08-19T06:53:59.007Z,24.55
2022-08-19T06:56:32.060Z,22.67
2022-08-19T06:59:01.107Z,23.77
2022-08-19T07:01:30.030Z,23.58
2022-08-19T07:03:58.622Z,23.92
2022-08-19T07:06:44.862Z,21.67
2022-08-19T07:09:18.411Z,22.33
2022-08-19T07:11:47.870Z,22.25
2022-08-19T07:14:19.068Z,21.67
2022-08-19T07:16:48.146Z,21.27
2022-08-19T07:19:19.021Z,20.05
2022-08-19T07:21:49.789Z,19.40
2022-08-19T07:24:19.567Z,20.27
2022-08-19T07:26:51.506Z,19.42
2022-08-19T07:29:20.453Z,18.65
2022-08-19T07:31:52.798Z,18.45
2022-08-19T07:34:22.941Z,17.13
2022-08-19T07:36:53.120Z,18.27
2022-08-19T07:39:22.650Z,16.50
2022-08-19T07:41:51.646Z,18.83
2022-08-19T07:44:21.588Z,16.30
2022-08-19T07:46:53.284Z,16.75
2022-08-19T07:49:23.273Z,16.13
2022-08-19T07:51:54.148Z,18.33
2022-08-19T07:54:24.034Z,16.58
2022-08-19T07:56:53.676Z,17.20
2022-08-19T07:59:22.696Z,15.98
2022-08-19T08:01:51.258Z,15.02
2022-08-19T08:04:37.368Z,17.60
2022-08-19T08:07:25.529Z,18.23
2022-08-19T08:10:02.796Z,15.10
2022-08-19T08:12:35.151Z,14.80
2022-08-19T08:15:08.287Z,16.08
2022-08-19T08:17:49.134Z,16.50
2022-08-19T08:20:18.796Z,14.02
2022-08-19T08:23:06.900Z,15.23
2022-08-19T08:25:36.627Z,12.95
2022-08-19T08:28:05.303Z,15.90
2022-08-19T08:30:36.850Z,12.95
2022-08-19T08:33:05.738Z,10.93
2022-08-19T08:35:34.438Z,11.18
2022-08-19T08:38:05.283Z,10.43
2022-08-19T08:40:41.819Z,11.60
2022-08-19T08:43:12.202Z,12.55
2022-08-19T08:45:44.652Z,11.95
2022-08-19T08:48:23.880Z,10.80
2022-08-19T08:50:53.676Z,10.68
2022-08-19T08:53:29.836Z,13.10
2022-08-19T08:56:02.387Z,10.90
2022-08-19T08:58:33.788Z,8.95
2022-08-19T09:01:02.215Z,8.52
2022-08-19T09:03:31.534Z,9.50
2022-08-19T09:06:03.209Z,6.40
2022-08-19T09:08:39.416Z,4.90
2022-08-19T09:11:09.634Z,5.32
2022-08-19T09:13:44.712Z,4.95
2022-08-19T09:16:15.065Z,5.85
2022-08-19T09:18:44.375Z,5.65
2022-08-19T09:21:12.928Z,7.50
2022-08-19T09:23:44.590Z,5.30
2022-08-19T09:26:16.542Z,6.60
2022-08-19T09:28:48.862Z,5.57
2022-08-19T09:31:27.305Z,5.85
2022-08-19T09:33:58.078Z,6.60
2022-08-19T09:36:31.255Z,6.32
2022-08-19T09:39:16.177Z,6.78
2022-08-19T09:41:47.262Z,6.65
2022-08-19T09:44:18.218Z,5.82
2022-08-19T09:46:48.410Z,5.45
2022-08-19T09:49:18.329Z,4.82
2022-08-19T09:51:51.174Z,5.30
2022-08-19T09:54:23.632Z,5.72
2022-08-19T09:56:53.585Z,6.18
2022-08-19T09:59:21.989Z,4.72
2022-08-19T10:01:50.453Z,5.10
2022-08-19T10:04:20.472Z,4.93
2022-08-19T10:06:53.778Z,5.80
2022-08-19T10:09:34.102Z,6.18
2022-08-19T10:12:03.164Z,5.18
2022-08-19T10:14:31.986Z,4.97
2022-08-19T10:17:01.389Z,5.65
2022-08-19T10:19:55.086Z,4.50
2022-08-19T10:22:26.402Z,4.97
2022-08-19T10:24:57.477Z,4.63
2022-08-19T10:27:26.314Z,3.42
2022-08-19T10:29:54.974Z,4.53
2022-08-19T10:32:34.281Z,4.00
2022-08-19T10:35:02.907Z,2.60
2022-08-19T10:37:34.635Z,2.90
2022-08-19T10:40:05.456Z,3.78
2022-08-19T10:42:34.138Z,5.47
2022-08-19T10:45:02.626Z,2.85
2022-08-19T10:47:33.428Z,3.72
2022-08-19T10:50:19.251Z,2.70
2022-08-19T10:52:50.615Z,3.15
2022-08-19T10:55:39.570Z,2.75
2022-08-19T10:58:13.338Z,2.40
2022-08-19T11:00:42.802Z,1.70
2022-08-19T11:03:11.226Z,3.03
2022-08-19T11:05:40.536Z,2.80
2022-08-19T11:08:22.762Z,1.52
2022-08-19T11:10:54.673Z,1.38
2022-08-19T11:13:24.296Z,1.83
2022-08-19T11:16:00.154Z,2.80
2022-08-19T11:18:31.210Z,1.58
2022-08-19T11:21:08.117Z,1.20
2022-08-19T11:23:36.579Z,2.28
2022-08-19T11:26:06.543Z,1.48
2022-08-19T11:28:34.960Z,3.17
2022-08-19T11:31:04.385Z,1.38
2022-08-19T11:33:33.798Z,1.70
2022-08-19T11:36:03.583Z,1.40
2022-08-19T11:38:32.046Z,2.78
2022-08-19T11:41:01.041Z,2.55
2022-08-19T11:43:35.493Z,1.63
2022-08-19T11:46:07.851Z,1.33
2022-08-19T11:48:36.534Z,1.75
2022-08-19T11:51:07.537Z,1.23
2022-08-19T11:53:39.781Z,1.90
2022-08-19T11:56:09.603Z,1.75
2022-08-19T11:58:39.540Z,2.00
2022-08-19T12:01:09.122Z,1.42
2022-08-19T12:03:37.694Z,1.60
2022-08-19T12:06:07.075Z,1.30
2022-08-19T12:08:35.503Z,1.65
2022-08-19T12:11:04.133Z,1.75
2022-08-19T12:13:33.183Z,2.50
2022-08-19T12:16:04.238Z,2.65
2022-08-19T12:18:33.094Z,2.40
2022-08-19T12:21:02.498Z,2.33
2022-08-19T12:23:30.950Z,2.72
2022-08-19T12:25:59.514Z,2.22
2022-08-19T12:28:28.409Z,1.70
2022-08-19T12:30:58.925Z,1.85
2022-08-19T12:33:29.939Z,2.00
2022-08-19T12:36:03.041Z,1.50
2022-08-19T12:38:31.591Z,1.80
2022-08-19T12:41:00.515Z,1.83
2022-08-19T12:43:31.386Z,1.95
2022-08-19T12:45:59.832Z,1.92
2022-08-19T12:48:33.462Z,1.73
2022-08-19T12:51:03.725Z,1.70
2022-08-19T12:53:32.350Z,3.45
2022-08-19T12:56:03.311Z,3.78
2022-08-19T12:58:36.455Z,2.25
2022-08-19T13:01:09.099Z,2.30
2022-08-19T13:03:40.695Z,3.00
2022-08-19T13:06:19.503Z,2.45
2022-08-19T13:08:48.931Z,2.60
2022-08-19T13:11:18.771Z,2.05
2022-08-19T13:13:48.725Z,1.73
2022-08-19T13:16:17.617Z,3.63
2022-08-19T13:18:48.585Z,2.40
2022-08-19T13:21:18.487Z,2.22
2022-08-19T13:23:49.427Z,3.40
2022-08-19T13:26:18.279Z,3.72
2022-08-19T13:29:05.363Z,2.05
2022-08-19T13:31:52.535Z,2.28
2022-08-19T13:34:28.204Z,2.83
2022-08-19T13:36:59.741Z,1.75
2022-08-19T13:39:28.722Z,2.20
2022-08-19T13:41:57.258Z,2.40
2022-08-19T13:44:25.661Z,2.85
2022-08-19T13:46:55.707Z,4.78
2022-08-19T13:49:25.465Z,3.72
2022-08-19T13:51:53.952Z,3.72
2022-08-19T13:54:22.740Z,2.70
2022-08-19T13:56:51.272Z,3.70
2022-08-19T13:59:20.168Z,2.90
2022-08-19T14:01:48.592Z,2.10
2022-08-19T14:04:17.027Z,1.90
2022-08-19T14:06:46.823Z,2.08
2022-08-19T14:09:15.292Z,1.60
2022-08-19T14:11:43.808Z,2.42
2022-08-19T14:14:16.224Z,1.70
2022-08-19T14:16:45.166Z,2.67
2022-08-19T14:19:13.669Z,2.20
2022-08-19T14:21:42.141Z,1.67
2022-08-19T14:24:12.074Z,1.63
2022-08-19T14:26:40.550Z,1.33
2022-08-19T14:29:09.000Z,1.60
2022-08-19T14:31:38.212Z,1.73
2022-08-19T14:34:06.645Z,3.33
2022-08-19T14:36:39.083Z,1.70
2022-08-19T14:39:08.033Z,1.67
2022-08-19T14:41:38.152Z,1.70
2022-08-19T14:44:06.637Z,2.40
2022-08-19T14:46:35.167Z,2.13
2022-08-19T14:49:09.231Z,1.65
2022-08-19T14:51:38.257Z,2.53
2022-08-19T14:54:06.908Z,1.58
2022-08-19T14:56:36.783Z,1.60
2022-08-19T14:59:07.995Z,3.53
2022-08-19T15:01:36.629Z,1.70
2022-08-19T15:04:05.146Z,1.70
2022-08-19T15:06:33.754Z,1.80
2022-08-19T15:09:04.509Z,1.98
2022-08-19T15:11:33.798Z,1.83
2022-08-19T15:14:02.450Z,2.03
2022-08-19T15:16:32.304Z,1.77
2022-08-19T15:19:01.228Z,2.75
2022-08-19T15:21:30.563Z,1.80
2022-08-19T15:23:59.897Z,3.08
2022-08-19T15:26:29.037Z,1.70
2022-08-19T15:28:57.471Z,1.60
2022-08-19T15:31:28.808Z,2.28
2022-08-19T15:33:59.466Z,2.67
2022-08-19T15:36:28.503Z,2.22
2022-08-19T15:38:57.076Z,1.92
2022-08-19T15:41:26.756Z,2.40
2022-08-19T15:43:56.797Z,2.33
2022-08-19T15:46:26.692Z,1.80
2022-08-19T15:48:57.326Z,2.53
2022-08-19T15:51:31.431Z,1.90
2022-08-19T15:54:01.739Z,2.38
2022-08-19T15:56:57.988Z,2.10
2022-08-19T15:59:46.798Z,3.47
2022-08-19T16:02:33.500Z,2.25
2022-08-19T16:05:20.062Z,1.67
2022-08-19T16:07:51.115Z,2.00
2022-08-19T16:10:26.980Z,2.45
2022-08-19T16:12:56.893Z,2.10
2022-08-19T16:15:25.905Z,3.17
2022-08-19T16:17:56.513Z,1.92
2022-08-19T16:20:27.507Z,3.10
2022-08-19T16:22:58.567Z,2.92
2022-08-19T16:25:28.974Z,1.70
2022-08-19T16:28:07.456Z,3.50
2022-08-19T16:30:37.063Z,3.05
2022-08-19T16:33:05.650Z,3.08
2022-08-19T16:35:34.036Z,5.10
2022-08-19T16:38:04.171Z,2.78
2022-08-19T16:40:32.610Z,2.15
2022-08-19T16:43:01.063Z,3.38
2022-08-19T16:45:29.552Z,2.38
2022-08-19T16:47:58.528Z,3.55
2022-08-19T16:50:46.104Z,2.50
2022-08-19T16:53:17.726Z,2.58
2022-08-19T16:55:51.223Z,2.13
2022-08-19T16:58:20.180Z,1.80
2022-08-19T17:00:49.991Z,2.65
2022-08-19T17:03:19.752Z,4.13
2022-08-19T17:06:04.091Z,4.80
2022-08-19T17:08:34.361Z,1.80
2022-08-19T17:11:17.754Z,3.08
2022-08-19T17:13:47.744Z,4.00
2022-08-19T17:16:17.253Z,2.22
2022-08-19T17:18:45.696Z,2.85
2022-08-19T17:21:14.419Z,3.50
2022-08-19T17:23:44.375Z,6.88
2022-08-19T17:26:13.996Z,4.18
2022-08-19T17:28:47.294Z,2.95
2022-08-19T17:31:15.771Z,3.17
2022-08-19T17:33:48.691Z,2.45
2022-08-19T17:36:17.660Z,3.28
2022-08-19T17:38:47.801Z,2.40
2022-08-19T17:41:16.284Z,2.83
2022-08-19T17:43:45.176Z,2.47
2022-08-19T17:46:17.806Z,3.58
2022-08-19T17:48:51.812Z,3.03
2022-08-19T17:51:22.374Z,6.63
2022-08-19T17:53:53.207Z,2.55
2022-08-19T17:56:22.210Z,6.88
2022-08-19T17:59:00.049Z,2.20
2022-08-19T18:01:41.626Z,2.60
2022-08-19T18:04:18.829Z,3.88
2022-08-19T18:06:53.202Z,3.13
2022-08-19T18:09:24.456Z,3.72
2022-08-19T18:11:54.545Z,4.13
2022-08-19T18:14:32.769Z,3.15
2022-08-19T18:17:02.282Z,4.82
2022-08-19T18:19:40.894Z,2.75
2022-08-19T18:22:11.167Z,2.85
2022-08-19T18:24:41.532Z,4.10
2022-08-19T18:27:10.123Z,7.15
2022-08-19T18:29:40.289Z,2.40
2022-08-19T18:32:13.343Z,4.47
2022-08-19T18:34:42.030Z,2.40
2022-08-19T18:37:10.573Z,2.67
2022-08-19T18:39:56.777Z,2.22
2022-08-19T18:42:44.297Z,2.70
2022-08-19T18:45:30.342Z,3.10
2022-08-19T18:48:27.240Z,2.20
2022-08-19T18:50:57.122Z,4.95
2022-08-19T18:53:25.558Z,2.53
2022-08-19T18:55:55.376Z,2.42
2022-08-19T18:58:26.720Z,2.72
2022-08-19T19:00:57.386Z,2.88
2022-08-19T19:03:26.275Z,3.60
2022-08-19T19:05:54.717Z,3.53
2022-08-19T19:08:26.805Z,2.30
2022-08-19T19:10:55.761Z,5.35
2022-08-19T19:13:26.851Z,2.38
2022-08-19T19:15:55.539Z,4.65
2022-08-19T19:18:25.176Z,6.82
2022-08-19T19:20:53.585Z,4.75
2022-08-19T19:23:22.605Z,4.60
2022-08-19T19:25:54.107Z,5.13
2022-08-19T19:28:25.801Z,4.60
2022-08-19T19:30:57.682Z,4.53
2022-08-19T19:33:26.234Z,5.85
2022-08-19T19:35:54.614Z,3.45
2022-08-19T19:38:23.060Z,5.95
2022-08-19T19:40:51.492Z,5.40
2022-08-19T19:43:19.892Z,2.80
2022-08-19T19:45:49.659Z,4.85
2022-08-19T19:48:19.539Z,3.00
2022-08-19T19:50:53.913Z,3.65
2022-08-19T19:53:24.547Z,7.03
2022-08-19T19:55:58.931Z,3.85
2022-08-19T19:58:28.844Z,3.78
2022-08-19T20:00:57.987Z,2.63
2022-08-19T20:03:28.026Z,3.88
2022-08-19T20:05:59.520Z,4.18
2022-08-19T20:08:45.206Z,2.95
2022-08-19T20:11:17.112Z,2.70
2022-08-19T20:13:45.534Z,4.22
2022-08-19T20:16:13.910Z,3.53
2022-08-19T20:18:45.108Z,4.57
2022-08-19T20:21:13.957Z,2.63
2022-08-19T20:23:42.384Z,2.67
2022-08-19T20:26:15.652Z,4.80
2022-08-19T20:29:11.021Z,3.92
2022-08-19T20:31:57.209Z,4.80
2022-08-19T20:34:27.708Z,4.63
2022-08-19T20:36:56.257Z,5.05
2022-08-19T20:39:24.756Z,3.00
2022-08-19T20:41:53.228Z,3.15
2022-08-19T20:44:21.638Z,3.33
2022-08-19T20:46:55.346Z,4.65
2022-08-19T20:49:26.931Z,3.20
2022-08-19T20:51:57.539Z,3.97
2022-08-19T20:54:26.812Z,4.85
2022-08-19T20:56:55.574Z,4.43
2022-08-19T20:59:24.226Z,3.30
2022-08-19T21:01:53.076Z,4.13
2022-08-19T21:04:21.907Z,3.90
2022-08-19T21:06:50.370Z,4.95
2022-08-19T21:09:20.470Z,3.42
2022-08-19T21:11:49.253Z,4.25
2022-08-19T21:14:17.741Z,4.78
2022-08-19T21:16:46.601Z,5.95
2022-08-19T21:19:15.025Z,3.03
2022-08-19T21:21:43.431Z,4.20
2022-08-19T21:24:12.114Z,4.78
2022-08-19T21:26:42.167Z,3.85
2022-08-19T21:29:10.577Z,5.47
2022-08-19T21:31:38.963Z,4.07
2022-08-19T21:34:07.411Z,5.28
2022-08-19T21:36:35.786Z,5.18
2022-08-19T21:39:04.258Z,3.83
2022-08-19T21:41:32.651Z,3.88
2022-08-19T21:44:02.520Z,4.75
2022-08-19T21:46:32.482Z,4.00
2022-08-19T21:49:00.923Z,6.43
2022-08-19T21:51:29.537Z,3.40
2022-08-19T21:53:57.999Z,3.63
2022-08-19T21:56:26.408Z,3.50
2022-08-19T21:58:56.636Z,5.15
2022-08-19T22:01:26.463Z,4.10
2022-08-19T22:03:54.953Z,4.43
2022-08-19T22:06:26.060Z,4.15
2022-08-19T22:08:55.498Z,5.97
2022-08-19T22:11:23.928Z,3.63
2022-08-19T22:13:53.847Z,3.70
2022-08-19T22:16:22.252Z,3.90
2022-08-19T22:18:52.850Z,4.18
2022-08-19T22:21:24.619Z,4.57
2022-08-19T22:24:08.562Z,4.25
2022-08-19T22:26:36.943Z,4.28
2022-08-19T22:29:05.434Z,3.20
2022-08-19T22:31:33.814Z,4.15
2022-08-19T22:34:03.790Z,4.85
2022-08-19T22:36:32.488Z,3.80
2022-08-19T22:39:00.945Z,3.83
2022-08-19T22:41:29.331Z,3.85
2022-08-19T22:43:58.155Z,3.67
2022-08-19T22:46:26.527Z,4.57
2022-08-19T22:48:56.647Z,5.45
2022-08-19T22:51:48.576Z,4.40
2022-08-19T22:54:17.122Z,3.97
2022-08-19T22:56:45.570Z,3.80
2022-08-19T22:59:14.008Z,6.70
2022-08-19T23:01:42.821Z,3.67
2022-08-19T23:04:11.703Z,5.90
2022-08-19T23:06:42.236Z,5.15
2022-08-19T23:09:16.969Z,7.35
2022-08-19T23:11:45.576Z,4.53
2022-08-19T23:14:14.471Z,4.28
2022-08-19T23:16:42.919Z,4.25
2022-08-19T23:19:11.752Z,4.15
2022-08-19T23:21:41.780Z,4.95
2022-08-19T23:24:10.221Z,4.07
2022-08-19T23:26:38.813Z,3.80
2022-08-19T23:29:25.361Z,4.57
2022-08-19T23:31:53.781Z,5.07
2022-08-19T23:34:22.195Z,8.07
2022-08-19T23:36:51.966Z,4.00
2022-08-19T23:39:20.376Z,5.97
2022-08-19T23:41:48.807Z,5.18
2022-08-19T23:44:17.505Z,5.05
2022-08-19T23:46:55.197Z,6.97
2022-08-19T23:49:25.092Z,5.63
2022-08-19T23:51:55.505Z,5.78
2022-08-19T23:54:27.520Z,6.28
2022-08-19T23:57:13.266Z,5.38
2022-08-19T23:59:45.431Z,5.40
